sensor_id;sensor_type;location;lat;lon;timestamp;P1;durP1;ratioP1;P2;durP2;ratioP2
54388;SDS011;40975;50.390;8.640;2023-02-01T00:02:23;5.45;;;2.92;;
54388;SDS011;40975;50.390;8.640;2023-02-01T00:04:49;3.67;;;2.42;;
54388;SDS011;40975;50.390;8.640;2023-02-01T00:07:14;4.80;;;2.20;;
54388;SDS011;40975;50.390;8.640;2023-02-01T00:09:39;5.75;;;1.90;;
54388;SDS011;40975;50.390;8.640;2023-02-01T00:12:04;6.85;;;2.60;;
54388;SDS011;40975;50.390;8.640;2023-02-01T00:14:30;4.70;;;2.13;;
54388;SDS011;40975;50.390;8.640;2023-02-01T00:16:57;8.57;;;3.40;;
54388;SDS011;40975;50.390;8.640;2023-02-01T00:19:22;5.07;;;2.25;;
54388;SDS011;40975;50.390;8.640;2023-02-01T00:21:48;5.03;;;2.40;;
54388;SDS011;40975;50.390;8.640;2023-02-01T00:24:13;4.85;;;2.45;;
54388;SDS011;40975;50.390;8.640;2023-02-01T00:26:40;7.45;;;2.38;;
54388;SDS011;40975;50.390;8.640;2023-02-01T00:29:17;6.38;;;2.67;;
54388;SDS011;40975;50.390;8.640;2023-02-01T00:31:44;3.83;;;2.60;;
54388;SDS011;40975;50.390;8.640;2023-02-01T00:34:13;6.45;;;2.20;;
54388;SDS011;40975;50.390;8.640;2023-02-01T00:36:40;4.50;;;2.45;;
54388;SDS011;40975;50.390;8.640;2023-02-01T00:39:07;5.40;;;2.17;;
54388;SDS011;40975;50.390;8.640;2023-02-01T00:41:32;9.00;;;2.83;;
54388;SDS011;40975;50.390;8.640;2023-02-01T00:43:57;7.53;;;2.90;;
54388;SDS011;40975;50.390;8.640;2023-02-01T00:46:23;4.90;;;2.72;;
54388;SDS011;40975;50.390;8.640;2023-02-01T00:48:49;5.13;;;2.50;;
54388;SDS011;40975;50.390;8.640;2023-02-01T00:51:15;4.95;;;2.83;;
54388;SDS011;40975;50.390;8.640;2023-02-01T00:53:41;7.88;;;2.83;;
54388;SDS011;40975;50.390;8.640;2023-02-01T00:56:07;10.80;;;3.33;;
54388;SDS011;40975;50.390;8.640;2023-02-01T00:58:34;5.28;;;2.88;;
54388;SDS011;40975;50.390;8.640;2023-02-01T01:01:42;7.03;;;3.08;;
54388;SDS011;40975;50.390;8.640;2023-02-01T01:03:51;12.20;;;3.45;;
54388;SDS011;40975;50.390;8.640;2023-02-01T01:06:22;6.70;;;3.28;;
54388;SDS011;40975;50.390;8.640;2023-02-01T01:08:50;6.82;;;3.13;;
54388;SDS011;40975;50.390;8.640;2023-02-01T01:11:22;7.40;;;3.17;;
54388;SDS011;40975;50.390;8.640;2023-02-01T01:13:50;6.00;;;3.25;;
54388;SDS011;40975;50.390;8.640;2023-02-01T01:16:17;5.53;;;3.28;;
54388;SDS011;40975;50.390;8.640;2023-02-01T01:18:43;8.15;;;3.20;;
54388;SDS011;40975;50.390;8.640;2023-02-01T01:21:09;6.38;;;3.13;;
54388;SDS011;40975;50.390;8.640;2023-02-01T01:23:38;6.53;;;3.13;;
54388;SDS011;40975;50.390;8.640;2023-02-01T01:26:07;6.95;;;2.90;;
54388;SDS011;40975;50.390;8.640;2023-02-01T01:28:34;5.40;;;2.90;;
54388;SDS011;40975;50.390;8.640;2023-02-01T01:30:59;5.75;;;3.25;;
54388;SDS011;40975;50.390;8.640;2023-02-01T01:33:24;9.15;;;3.22;;
54388;SDS011;40975;50.390;8.640;2023-02-01T01:35:50;7.90;;;3.38;;
54388;SDS011;40975;50.390;8.640;2023-02-01T01:38:15;4.85;;;3.38;;
54388;SDS011;40975;50.390;8.640;2023-02-01T01:40:44;7.70;;;3.25;;
54388;SDS011;40975;50.390;8.640;2023-02-01T01:43:14;9.98;;;3.28;;
54388;SDS011;40975;50.390;8.640;2023-02-01T01:45:40;7.78;;;3.17;;
54388;SDS011;40975;50.390;8.640;2023-02-01T01:48:11;8.55;;;3.30;;
54388;SDS011;40975;50.390;8.640;2023-02-01T01:50:50;9.63;;;3.30;;
54388;SDS011;40975;50.390;8.640;2023-02-01T01:53:20;5.40;;;3.00;;
54388;SDS011;40975;50.390;8.640;2023-02-01T01:55:49;6.85;;;3.35;;
54388;SDS011;40975;50.390;8.640;2023-02-01T01:58:17;7.13;;;2.80;;
54388;SDS011;40975;50.390;8.640;2023-02-01T02:00:46;6.38;;;3.55;;
54388;SDS011;40975;50.390;8.640;2023-02-01T02:03:22;8.23;;;3.28;;
54388;SDS011;40975;50.390;8.640;2023-02-01T02:05:52;5.20;;;2.83;;
54388;SDS011;40975;50.390;8.640;2023-02-01T02:08:20;6.35;;;2.95;;
54388;SDS011;40975;50.390;8.640;2023-02-01T02:10:48;9.70;;;3.00;;
54388;SDS011;40975;50.390;8.640;2023-02-01T02:21:45;6.70;;;2.97;;
54388;SDS011;40975;50.390;8.640;2023-02-01T02:24:26;6.05;;;2.90;;
54388;SDS011;40975;50.390;8.640;2023-02-01T02:35:29;4.53;;;2.55;;
54388;SDS011;40975;50.390;8.640;2023-02-01T02:38:09;8.45;;;3.05;;
54388;SDS011;40975;50.390;8.640;2023-02-01T02:40:55;6.80;;;2.83;;
54388;SDS011;40975;50.390;8.640;2023-02-01T02:43:23;4.78;;;2.28;;
54388;SDS011;40975;50.390;8.640;2023-02-01T02:46:25;5.18;;;2.47;;
54388;SDS011;40975;50.390;8.640;2023-02-01T02:49:19;5.95;;;3.25;;
54388;SDS011;40975;50.390;8.640;2023-02-01T02:52:11;4.90;;;2.80;;
54388;SDS011;40975;50.390;8.640;2023-02-01T02:55:00;5.90;;;2.60;;
54388;SDS011;40975;50.390;8.640;2023-02-01T02:57:38;4.57;;;2.40;;
54388;SDS011;40975;50.390;8.640;2023-02-01T03:00:29;9.07;;;3.33;;
54388;SDS011;40975;50.390;8.640;2023-02-01T03:03:17;4.28;;;2.75;;
54388;SDS011;40975;50.390;8.640;2023-02-01T03:06:01;6.30;;;3.03;;
54388;SDS011;40975;50.390;8.640;2023-02-01T03:08:27;3.53;;;2.28;;
54388;SDS011;40975;50.390;8.640;2023-02-01T03:11:02;4.68;;;3.03;;
54388;SDS011;40975;50.390;8.640;2023-02-01T03:21:52;4.07;;;2.20;;
54388;SDS011;40975;50.390;8.640;2023-02-01T03:24:23;4.10;;;2.38;;
54388;SDS011;40975;50.390;8.640;2023-02-01T03:27:05;4.93;;;2.17;;
54388;SDS011;40975;50.390;8.640;2023-02-01T03:29:49;4.55;;;1.98;;
54388;SDS011;40975;50.390;8.640;2023-02-01T03:32:20;3.80;;;1.67;;
54388;SDS011;40975;50.390;8.640;2023-02-01T03:34:46;6.38;;;1.90;;
54388;SDS011;40975;50.390;8.640;2023-02-01T03:37:14;3.63;;;2.00;;
54388;SDS011;40975;50.390;8.640;2023-02-01T03:39:53;2.17;;;1.60;;
54388;SDS011;40975;50.390;8.640;2023-02-01T03:42:27;4.85;;;1.40;;
54388;SDS011;40975;50.390;8.640;2023-02-01T03:47:47;5.60;;;1.60;;
54388;SDS011;40975;50.390;8.640;2023-02-01T03:50:21;5.20;;;1.75;;
54388;SDS011;40975;50.390;8.640;2023-02-01T03:52:57;5.05;;;1.73;;
54388;SDS011;40975;50.390;8.640;2023-02-01T03:55:26;2.80;;;1.55;;
54388;SDS011;40975;50.390;8.640;2023-02-01T03:58:04;5.10;;;1.92;;
54388;SDS011;40975;50.390;8.640;2023-02-01T04:00:36;5.97;;;1.92;;
54388;SDS011;40975;50.390;8.640;2023-02-01T04:03:02;4.57;;;1.65;;
54388;SDS011;40975;50.390;8.640;2023-02-01T04:05:29;10.63;;;1.83;;
54388;SDS011;40975;50.390;8.640;2023-02-01T04:08:00;5.07;;;1.40;;
54388;SDS011;40975;50.390;8.640;2023-02-01T04:10:25;10.55;;;2.10;;
54388;SDS011;40975;50.390;8.640;2023-02-01T04:12:51;5.85;;;1.38;;
54388;SDS011;40975;50.390;8.640;2023-02-01T04:15:17;9.30;;;1.70;;
54388;SDS011;40975;50.390;8.640;2023-02-01T04:17:42;9.43;;;2.00;;
54388;SDS011;40975;50.390;8.640;2023-02-01T04:20:08;7.53;;;2.22;;
54388;SDS011;40975;50.390;8.640;2023-02-01T04:22:34;5.22;;;1.35;;
54388;SDS011;40975;50.390;8.640;2023-02-01T04:25:00;12.63;;;2.33;;
54388;SDS011;40975;50.390;8.640;2023-02-01T04:27:26;3.13;;;1.38;;
54388;SDS011;40975;50.390;8.640;2023-02-01T04:29:51;7.85;;;1.98;;
54388;SDS011;40975;50.390;8.640;2023-02-01T04:32:17;5.80;;;2.90;;
54388;SDS011;40975;50.390;8.640;2023-02-01T04:34:42;3.42;;;1.70;;
54388;SDS011;40975;50.390;8.640;2023-02-01T04:37:08;6.57;;;1.45;;
54388;SDS011;40975;50.390;8.640;2023-02-01T04:39:33;5.68;;;1.92;;
54388;SDS011;40975;50.390;8.640;2023-02-01T04:41:59;3.47;;;1.98;;
54388;SDS011;40975;50.390;8.640;2023-02-01T04:44:24;4.05;;;1.67;;
54388;SDS011;40975;50.390;8.640;2023-02-01T04:46:49;5.18;;;1.50;;
54388;SDS011;40975;50.390;8.640;2023-02-01T04:49:15;7.30;;;2.75;;
54388;SDS011;40975;50.390;8.640;2023-02-01T04:51:40;10.05;;;2.17;;
54388;SDS011;40975;50.390;8.640;2023-02-01T04:54:06;7.85;;;1.88;;
54388;SDS011;40975;50.390;8.640;2023-02-01T04:56:32;10.85;;;2.22;;
54388;SDS011;40975;50.390;8.640;2023-02-01T04:58:59;5.88;;;2.00;;
54388;SDS011;40975;50.390;8.640;2023-02-01T05:01:25;10.43;;;1.65;;
54388;SDS011;40975;50.390;8.640;2023-02-01T05:03:50;6.65;;;1.65;;
54388;SDS011;40975;50.390;8.640;2023-02-01T05:06:16;7.80;;;1.80;;
54388;SDS011;40975;50.390;8.640;2023-02-01T05:08:41;9.75;;;2.25;;
54388;SDS011;40975;50.390;8.640;2023-02-01T05:11:06;7.15;;;1.95;;
54388;SDS011;40975;50.390;8.640;2023-02-01T05:13:52;8.15;;;2.22;;
54388;SDS011;40975;50.390;8.640;2023-02-01T05:16:17;6.47;;;1.77;;
54388;SDS011;40975;50.390;8.640;2023-02-01T05:18:42;3.03;;;1.45;;
54388;SDS011;40975;50.390;8.640;2023-02-01T05:21:08;8.63;;;1.75;;
54388;SDS011;40975;50.390;8.640;2023-02-01T05:23:33;7.95;;;1.48;;
54388;SDS011;40975;50.390;8.640;2023-02-01T05:26:18;12.15;;;1.48;;
54388;SDS011;40975;50.390;8.640;2023-02-01T05:28:44;6.45;;;1.67;;
54388;SDS011;40975;50.390;8.640;2023-02-01T05:31:10;16.52;;;2.15;;
54388;SDS011;40975;50.390;8.640;2023-02-01T05:33:35;9.68;;;1.98;;
54388;SDS011;40975;50.390;8.640;2023-02-01T05:36:01;5.07;;;1.55;;
54388;SDS011;40975;50.390;8.640;2023-02-01T05:38:26;5.80;;;1.83;;
54388;SDS011;40975;50.390;8.640;2023-02-01T05:40:51;7.60;;;2.05;;
54388;SDS011;40975;50.390;8.640;2023-02-01T05:43:17;7.30;;;1.55;;
54388;SDS011;40975;50.390;8.640;2023-02-01T05:45:42;7.70;;;1.80;;
54388;SDS011;40975;50.390;8.640;2023-02-01T05:48:07;4.38;;;1.50;;
54388;SDS011;40975;50.390;8.640;2023-02-01T05:50:32;4.97;;;1.38;;
54388;SDS011;40975;50.390;8.640;2023-02-01T05:52:58;6.85;;;1.55;;
54388;SDS011;40975;50.390;8.640;2023-02-01T05:55:23;4.72;;;1.20;;
54388;SDS011;40975;50.390;8.640;2023-02-01T05:57:48;6.40;;;1.52;;
54388;SDS011;40975;50.390;8.640;2023-02-01T06:00:14;4.60;;;1.55;;
54388;SDS011;40975;50.390;8.640;2023-02-01T06:02:40;3.75;;;1.90;;
54388;SDS011;40975;50.390;8.640;2023-02-01T06:05:05;7.57;;;1.73;;
54388;SDS011;40975;50.390;8.640;2023-02-01T06:07:31;5.05;;;1.67;;
54388;SDS011;40975;50.390;8.640;2023-02-01T06:09:57;9.05;;;2.70;;
54388;SDS011;40975;50.390;8.640;2023-02-01T06:12:22;5.88;;;1.55;;
54388;SDS011;40975;50.390;8.640;2023-02-01T06:14:48;7.07;;;2.10;;
54388;SDS011;40975;50.390;8.640;2023-02-01T06:17:13;7.90;;;1.83;;
54388;SDS011;40975;50.390;8.640;2023-02-01T06:19:38;5.25;;;1.92;;
54388;SDS011;40975;50.390;8.640;2023-02-01T06:22:05;7.72;;;1.60;;
54388;SDS011;40975;50.390;8.640;2023-02-01T06:24:31;6.97;;;1.50;;
54388;SDS011;40975;50.390;8.640;2023-02-01T06:26:56;3.30;;;1.50;;
54388;SDS011;40975;50.390;8.640;2023-02-01T06:29:21;11.30;;;1.70;;
54388;SDS011;40975;50.390;8.640;2023-02-01T06:31:47;8.70;;;1.80;;
54388;SDS011;40975;50.390;8.640;2023-02-01T06:34:12;8.18;;;1.90;;
54388;SDS011;40975;50.390;8.640;2023-02-01T06:36:37;6.72;;;1.80;;
54388;SDS011;40975;50.390;8.640;2023-02-01T06:39:03;9.68;;;1.50;;
54388;SDS011;40975;50.390;8.640;2023-02-01T06:41:29;8.07;;;1.35;;
54388;SDS011;40975;50.390;8.640;2023-02-01T06:43:54;6.32;;;1.33;;
54388;SDS011;40975;50.390;8.640;2023-02-01T06:46:20;8.63;;;1.75;;
54388;SDS011;40975;50.390;8.640;2023-02-01T06:48:45;4.45;;;1.52;;
54388;SDS011;40975;50.390;8.640;2023-02-01T06:51:20;6.47;;;1.55;;
54388;SDS011;40975;50.390;8.640;2023-02-01T06:53:47;8.85;;;2.05;;
54388;SDS011;40975;50.390;8.640;2023-02-01T06:56:13;6.93;;;1.73;;
54388;SDS011;40975;50.390;8.640;2023-02-01T06:58:38;7.75;;;1.83;;
54388;SDS011;40975;50.390;8.640;2023-02-01T07:01:05;6.13;;;1.88;;
54388;SDS011;40975;50.390;8.640;2023-02-01T07:03:31;4.60;;;1.50;;
54388;SDS011;40975;50.390;8.640;2023-02-01T07:05:57;6.28;;;1.73;;
54388;SDS011;40975;50.390;8.640;2023-02-01T07:08:29;8.23;;;2.33;;
54388;SDS011;40975;50.390;8.640;2023-02-01T07:10:55;9.45;;;2.28;;
54388;SDS011;40975;50.390;8.640;2023-02-01T07:13:20;4.70;;;1.70;;
54388;SDS011;40975;50.390;8.640;2023-02-01T07:15:45;6.32;;;1.70;;
54388;SDS011;40975;50.390;8.640;2023-02-01T07:18:14;4.82;;;1.90;;
54388;SDS011;40975;50.390;8.640;2023-02-01T07:20:40;4.53;;;1.80;;
54388;SDS011;40975;50.390;8.640;2023-02-01T07:23:07;6.63;;;1.70;;
54388;SDS011;40975;50.390;8.640;2023-02-01T07:25:35;4.68;;;1.55;;
54388;SDS011;40975;50.390;8.640;2023-02-01T07:28:00;6.82;;;1.55;;
54388;SDS011;40975;50.390;8.640;2023-02-01T07:30:25;4.20;;;1.33;;
54388;SDS011;40975;50.390;8.640;2023-02-01T07:32:51;7.95;;;2.35;;
54388;SDS011;40975;50.390;8.640;2023-02-01T07:35:16;7.57;;;1.50;;
54388;SDS011;40975;50.390;8.640;2023-02-01T07:37:41;8.98;;;1.65;;
54388;SDS011;40975;50.390;8.640;2023-02-01T07:40:07;3.72;;;1.27;;
54388;SDS011;40975;50.390;8.640;2023-02-01T07:42:33;5.63;;;1.98;;
54388;SDS011;40975;50.390;8.640;2023-02-01T07:44:59;8.15;;;1.88;;
54388;SDS011;40975;50.390;8.640;2023-02-01T07:47:24;6.53;;;1.30;;
54388;SDS011;40975;50.390;8.640;2023-02-01T07:49:49;7.38;;;1.60;;
54388;SDS011;40975;50.390;8.640;2023-02-01T07:52:15;7.28;;;2.08;;
54388;SDS011;40975;50.390;8.640;2023-02-01T07:54:43;5.65;;;0.93;;
54388;SDS011;40975;50.390;8.640;2023-02-01T07:57:08;6.03;;;1.48;;
54388;SDS011;40975;50.390;8.640;2023-02-01T07:59:36;2.83;;;1.50;;
54388;SDS011;40975;50.390;8.640;2023-02-01T08:02:21;4.57;;;1.67;;
54388;SDS011;40975;50.390;8.640;2023-02-01T08:04:47;6.00;;;1.20;;
54388;SDS011;40975;50.390;8.640;2023-02-01T08:07:12;7.32;;;1.45;;
54388;SDS011;40975;50.390;8.640;2023-02-01T08:09:37;8.88;;;1.85;;
54388;SDS011;40975;50.390;8.640;2023-02-01T08:12:02;9.02;;;1.77;;
54388;SDS011;40975;50.390;8.640;2023-02-01T08:14:28;7.43;;;1.80;;
54388;SDS011;40975;50.390;8.640;2023-02-01T08:16:53;8.15;;;2.25;;
54388;SDS011;40975;50.390;8.640;2023-02-01T08:19:19;4.25;;;1.30;;
54388;SDS011;40975;50.390;8.640;2023-02-01T08:21:44;12.45;;;1.80;;
54388;SDS011;40975;50.390;8.640;2023-02-01T08:24:09;10.02;;;2.30;;
54388;SDS011;40975;50.390;8.640;2023-02-01T08:26:35;3.58;;;2.00;;
54388;SDS011;40975;50.390;8.640;2023-02-01T08:29:01;3.63;;;1.40;;
54388;SDS011;40975;50.390;8.640;2023-02-01T08:31:29;7.38;;;1.42;;
54388;SDS011;40975;50.390;8.640;2023-02-01T08:33:59;7.75;;;2.13;;
54388;SDS011;40975;50.390;8.640;2023-02-01T08:38:53;5.85;;;1.75;;
54388;SDS011;40975;50.390;8.640;2023-02-01T08:41:20;3.95;;;1.70;;
54388;SDS011;40975;50.390;8.640;2023-02-01T08:43:47;7.65;;;1.58;;
54388;SDS011;40975;50.390;8.640;2023-02-01T08:46:13;6.00;;;2.35;;
54388;SDS011;40975;50.390;8.640;2023-02-01T08:48:39;6.18;;;1.33;;
54388;SDS011;40975;50.390;8.640;2023-02-01T08:51:05;3.92;;;1.40;;
54388;SDS011;40975;50.390;8.640;2023-02-01T08:53:34;5.80;;;1.60;;
54388;SDS011;40975;50.390;8.640;2023-02-01T08:56:00;11.23;;;1.75;;
54388;SDS011;40975;50.390;8.640;2023-02-01T08:58:26;10.10;;;1.88;;
54388;SDS011;40975;50.390;8.640;2023-02-01T09:00:51;3.58;;;1.67;;
54388;SDS011;40975;50.390;8.640;2023-02-01T09:03:17;6.25;;;2.00;;
54388;SDS011;40975;50.390;8.640;2023-02-01T09:05:42;9.48;;;1.70;;
54388;SDS011;40975;50.390;8.640;2023-02-01T09:08:08;12.32;;;1.60;;
54388;SDS011;40975;50.390;8.640;2023-02-01T09:10:34;5.30;;;2.05;;
54388;SDS011;40975;50.390;8.640;2023-02-01T09:13:01;4.43;;;1.23;;
54388;SDS011;40975;50.390;8.640;2023-02-01T09:15:26;7.15;;;1.90;;
54388;SDS011;40975;50.390;8.640;2023-02-01T09:17:51;6.60;;;1.90;;
54388;SDS011;40975;50.390;8.640;2023-02-01T09:20:17;10.10;;;2.55;;
54388;SDS011;40975;50.390;8.640;2023-02-01T09:22:43;5.03;;;1.42;;
54388;SDS011;40975;50.390;8.640;2023-02-01T09:25:09;5.13;;;1.92;;
54388;SDS011;40975;50.390;8.640;2023-02-01T09:27:34;5.63;;;1.80;;
54388;SDS011;40975;50.390;8.640;2023-02-01T09:30:00;3.78;;;1.75;;
54388;SDS011;40975;50.390;8.640;2023-02-01T09:32:26;10.88;;;2.08;;
54388;SDS011;40975;50.390;8.640;2023-02-01T09:34:51;8.40;;;1.92;;
54388;SDS011;40975;50.390;8.640;2023-02-01T09:37:17;8.02;;;1.65;;
54388;SDS011;40975;50.390;8.640;2023-02-01T09:39:43;4.07;;;1.58;;
54388;SDS011;40975;50.390;8.640;2023-02-01T09:48:11;8.15;;;2.22;;
54388;SDS011;40975;50.390;8.640;2023-02-01T09:50:43;8.55;;;1.40;;
54388;SDS011;40975;50.390;8.640;2023-02-01T09:53:23;9.68;;;1.85;;
54388;SDS011;40975;50.390;8.640;2023-02-01T09:56:00;7.65;;;1.77;;
54388;SDS011;40975;50.390;8.640;2023-02-01T09:58:38;9.50;;;2.03;;
54388;SDS011;40975;50.390;8.640;2023-02-01T10:01:10;10.00;;;2.35;;
54388;SDS011;40975;50.390;8.640;2023-02-01T10:03:41;13.30;;;1.80;;
54388;SDS011;40975;50.390;8.640;2023-02-01T10:12:04;4.88;;;1.52;;
54388;SDS011;40975;50.390;8.640;2023-02-01T10:17:42;12.30;;;1.88;;
54388;SDS011;40975;50.390;8.640;2023-02-01T10:22:53;6.38;;;1.73;;
54388;SDS011;40975;50.390;8.640;2023-02-01T10:25:49;6.40;;;1.65;;
54388;SDS011;40975;50.390;8.640;2023-02-01T10:28:21;7.45;;;1.50;;
54388;SDS011;40975;50.390;8.640;2023-02-01T10:30:49;4.00;;;1.20;;
54388;SDS011;40975;50.390;8.640;2023-02-01T10:33:23;6.78;;;1.40;;
54388;SDS011;40975;50.390;8.640;2023-02-01T10:35:55;5.75;;;1.83;;
54388;SDS011;40975;50.390;8.640;2023-02-01T10:38:27;7.57;;;1.60;;
54388;SDS011;40975;50.390;8.640;2023-02-01T10:40:55;3.30;;;1.60;;
54388;SDS011;40975;50.390;8.640;2023-02-01T10:43:25;5.30;;;1.40;;
54388;SDS011;40975;50.390;8.640;2023-02-01T10:45:51;2.70;;;0.98;;
54388;SDS011;40975;50.390;8.640;2023-02-01T10:48:16;9.57;;;1.83;;
54388;SDS011;40975;50.390;8.640;2023-02-01T10:51:01;4.57;;;1.38;;
54388;SDS011;40975;50.390;8.640;2023-02-01T10:53:33;4.00;;;1.95;;
54388;SDS011;40975;50.390;8.640;2023-02-01T10:56:07;11.50;;;1.83;;
54388;SDS011;40975;50.390;8.640;2023-02-01T10:58:35;9.70;;;1.60;;
54388;SDS011;40975;50.390;8.640;2023-02-01T11:03:39;5.43;;;1.50;;
54388;SDS011;40975;50.390;8.640;2023-02-01T11:06:22;8.13;;;1.65;;
54388;SDS011;40975;50.390;8.640;2023-02-01T11:08:50;12.20;;;2.00;;
54388;SDS011;40975;50.390;8.640;2023-02-01T11:11:17;6.95;;;1.77;;
54388;SDS011;40975;50.390;8.640;2023-02-01T11:13:44;3.80;;;1.17;;
54388;SDS011;40975;50.390;8.640;2023-02-01T11:16:18;7.55;;;1.73;;
54388;SDS011;40975;50.390;8.640;2023-02-01T11:18:44;2.65;;;1.50;;
54388;SDS011;40975;50.390;8.640;2023-02-01T11:21:09;5.45;;;1.38;;
54388;SDS011;40975;50.390;8.640;2023-02-01T11:23:39;6.45;;;1.70;;
54388;SDS011;40975;50.390;8.640;2023-02-01T11:26:12;5.30;;;1.10;;
54388;SDS011;40975;50.390;8.640;2023-02-01T11:28:39;4.28;;;1.33;;
54388;SDS011;40975;50.390;8.640;2023-02-01T11:31:11;9.65;;;1.45;;
54388;SDS011;40975;50.390;8.640;2023-02-01T11:33:39;5.75;;;1.10;;
54388;SDS011;40975;50.390;8.640;2023-02-01T11:36:15;5.20;;;1.15;;
54388;SDS011;40975;50.390;8.640;2023-02-01T11:39:28;8.30;;;1.13;;
54388;SDS011;40975;50.390;8.640;2023-02-01T11:41:40;6.53;;;1.48;;
54388;SDS011;40975;50.390;8.640;2023-02-01T11:47:20;9.10;;;2.10;;
54388;SDS011;40975;50.390;8.640;2023-02-01T11:49:46;2.95;;;1.30;;
54388;SDS011;40975;50.390;8.640;2023-02-01T12:00:39;3.63;;;1.00;;
54388;SDS011;40975;50.390;8.640;2023-02-01T12:05:50;8.25;;;1.90;;
54388;SDS011;40975;50.390;8.640;2023-02-01T12:08:48;3.40;;;1.30;;
54388;SDS011;40975;50.390;8.640;2023-02-01T12:11:31;4.55;;;1.05;;
54388;SDS011;40975;50.390;8.640;2023-02-01T12:19:48;7.03;;;1.55;;
54388;SDS011;40975;50.390;8.640;2023-02-01T12:25:21;7.30;;;1.17;;
54388;SDS011;40975;50.390;8.640;2023-02-01T12:33:33;4.32;;;1.40;;
54388;SDS011;40975;50.390;8.640;2023-02-01T12:36:09;4.47;;;1.23;;
54388;SDS011;40975;50.390;8.640;2023-02-01T12:44:14;7.07;;;1.45;;
54388;SDS011;40975;50.390;8.640;2023-02-01T12:46:50;6.20;;;1.30;;
54388;SDS011;40975;50.390;8.640;2023-02-01T12:49:28;8.50;;;1.83;;
54388;SDS011;40975;50.390;8.640;2023-02-01T12:52:07;2.08;;;1.30;;
54388;SDS011;40975;50.390;8.640;2023-02-01T13:00:50;9.23;;;1.58;;
54388;SDS011;40975;50.390;8.640;2023-02-01T13:06:10;4.38;;;1.15;;
54388;SDS011;40975;50.390;8.640;2023-02-01T13:08:45;3.38;;;1.00;;
54388;SDS011;40975;50.390;8.640;2023-02-01T13:14:14;4.70;;;1.05;;
54388;SDS011;40975;50.390;8.640;2023-02-01T13:17:00;5.78;;;2.03;;
54388;SDS011;40975;50.390;8.640;2023-02-01T13:22:15;5.32;;;1.10;;
54388;SDS011;40975;50.390;8.640;2023-02-01T13:24:51;8.00;;;1.52;;
54388;SDS011;40975;50.390;8.640;2023-02-01T13:27:21;8.80;;;1.60;;
54388;SDS011;40975;50.390;8.640;2023-02-01T13:29:52;6.47;;;1.15;;
54388;SDS011;40975;50.390;8.640;2023-02-01T13:32:26;10.38;;;2.00;;
54388;SDS011;40975;50.390;8.640;2023-02-01T13:40:47;5.57;;;1.50;;
54388;SDS011;40975;50.390;8.640;2023-02-01T13:46:07;7.43;;;1.35;;
54388;SDS011;40975;50.390;8.640;2023-02-01T13:48:45;5.78;;;1.17;;
54388;SDS011;40975;50.390;8.640;2023-02-01T13:51:14;7.50;;;1.27;;
54388;SDS011;40975;50.390;8.640;2023-02-01T13:53:44;6.70;;;1.52;;
54388;SDS011;40975;50.390;8.640;2023-02-01T13:56:14;3.83;;;1.20;;
54388;SDS011;40975;50.390;8.640;2023-02-01T13:58:42;4.18;;;1.02;;
54388;SDS011;40975;50.390;8.640;2023-02-01T14:03:49;4.78;;;1.30;;
54388;SDS011;40975;50.390;8.640;2023-02-01T14:06:18;5.40;;;1.23;;
54388;SDS011;40975;50.390;8.640;2023-02-01T14:11:36;8.18;;;1.52;;
54388;SDS011;40975;50.390;8.640;2023-02-01T14:14:37;5.32;;;1.50;;
54388;SDS011;40975;50.390;8.640;2023-02-01T14:19:27;10.18;;;1.58;;
54388;SDS011;40975;50.390;8.640;2023-02-01T14:21:58;4.25;;;0.90;;
54388;SDS011;40975;50.390;8.640;2023-02-01T14:24:32;3.45;;;1.10;;
54388;SDS011;40975;50.390;8.640;2023-02-01T14:27:00;4.88;;;1.25;;
54388;SDS011;40975;50.390;8.640;2023-02-01T14:29:34;2.83;;;1.05;;
54388;SDS011;40975;50.390;8.640;2023-02-01T14:44:42;4.38;;;1.40;;
54388;SDS011;40975;50.390;8.640;2023-02-01T14:52:46;4.65;;;1.02;;
54388;SDS011;40975;50.390;8.640;2023-02-01T14:55:37;6.55;;;0.80;;
54388;SDS011;40975;50.390;8.640;2023-02-01T14:58:19;5.43;;;0.70;;
54388;SDS011;40975;50.390;8.640;2023-02-01T15:00:56;7.70;;;2.13;;
54388;SDS011;40975;50.390;8.640;2023-02-01T15:03:34;3.22;;;0.73;;
54388;SDS011;40975;50.390;8.640;2023-02-01T15:08:48;5.70;;;1.10;;
54388;SDS011;40975;50.390;8.640;2023-02-01T15:11:14;5.82;;;1.02;;
54388;SDS011;40975;50.390;8.640;2023-02-01T15:13:47;7.00;;;1.08;;
54388;SDS011;40975;50.390;8.640;2023-02-01T15:16:16;2.95;;;1.00;;
54388;SDS011;40975;50.390;8.640;2023-02-01T15:18:42;4.50;;;0.95;;
54388;SDS011;40975;50.390;8.640;2023-02-01T15:21:21;8.68;;;1.92;;
54388;SDS011;40975;50.390;8.640;2023-02-01T15:23:47;6.57;;;2.42;;
54388;SDS011;40975;50.390;8.640;2023-02-01T15:26:29;8.00;;;1.60;;
54388;SDS011;40975;50.390;8.640;2023-02-01T15:28:57;4.10;;;1.20;;
54388;SDS011;40975;50.390;8.640;2023-02-01T15:31:33;3.13;;;0.68;;
54388;SDS011;40975;50.390;8.640;2023-02-01T15:34:02;3.47;;;0.82;;
54388;SDS011;40975;50.390;8.640;2023-02-01T15:36:28;2.03;;;1.05;;
54388;SDS011;40975;50.390;8.640;2023-02-01T15:41:55;11.10;;;1.50;;
54388;SDS011;40975;50.390;8.640;2023-02-01T15:44:43;4.68;;;0.85;;
54388;SDS011;40975;50.390;8.640;2023-02-01T15:47:17;4.72;;;0.90;;
54388;SDS011;40975;50.390;8.640;2023-02-01T15:49:51;6.28;;;1.08;;
54388;SDS011;40975;50.390;8.640;2023-02-01T15:55:05;6.28;;;1.35;;
54388;SDS011;40975;50.390;8.640;2023-02-01T15:57:42;7.70;;;1.60;;
54388;SDS011;40975;50.390;8.640;2023-02-01T16:00:19;7.10;;;1.52;;
54388;SDS011;40975;50.390;8.640;2023-02-01T16:02:52;4.53;;;1.08;;
54388;SDS011;40975;50.390;8.640;2023-02-01T16:08:02;6.95;;;1.25;;
54388;SDS011;40975;50.390;8.640;2023-02-01T16:10:40;7.90;;;1.40;;
54388;SDS011;40975;50.390;8.640;2023-02-01T16:13:08;2.95;;;1.45;;
54388;SDS011;40975;50.390;8.640;2023-02-01T16:15:33;5.28;;;1.30;;
54388;SDS011;40975;50.390;8.640;2023-02-01T16:17:58;3.05;;;1.10;;
54388;SDS011;40975;50.390;8.640;2023-02-01T16:20:24;4.97;;;1.35;;
54388;SDS011;40975;50.390;8.640;2023-02-01T16:22:49;3.97;;;2.00;;
54388;SDS011;40975;50.390;8.640;2023-02-01T16:25:15;5.38;;;1.20;;
54388;SDS011;40975;50.390;8.640;2023-02-01T16:27:40;5.47;;;1.10;;
54388;SDS011;40975;50.390;8.640;2023-02-01T16:30:05;7.30;;;1.42;;
54388;SDS011;40975;50.390;8.640;2023-02-01T16:32:34;7.90;;;1.30;;
54388;SDS011;40975;50.390;8.640;2023-02-01T16:35:03;5.53;;;1.50;;
54388;SDS011;40975;50.390;8.640;2023-02-01T16:37:49;5.07;;;1.80;;
54388;SDS011;40975;50.390;8.640;2023-02-01T16:40:14;4.07;;;1.17;;
54388;SDS011;40975;50.390;8.640;2023-02-01T16:42:41;8.45;;;1.38;;
54388;SDS011;40975;50.390;8.640;2023-02-01T16:45:06;5.18;;;1.30;;
54388;SDS011;40975;50.390;8.640;2023-02-01T16:47:33;8.40;;;1.73;;
54388;SDS011;40975;50.390;8.640;2023-02-01T16:50:01;5.47;;;1.30;;
54388;SDS011;40975;50.390;8.640;2023-02-01T16:52:26;5.97;;;1.92;;
54388;SDS011;40975;50.390;8.640;2023-02-01T16:54:52;7.22;;;1.80;;
54388;SDS011;40975;50.390;8.640;2023-02-01T16:57:18;7.65;;;1.10;;
54388;SDS011;40975;50.390;8.640;2023-02-01T16:59:47;3.20;;;1.05;;
54388;SDS011;40975;50.390;8.640;2023-02-01T17:02:13;2.83;;;0.90;;
54388;SDS011;40975;50.390;8.640;2023-02-01T17:04:41;5.32;;;1.10;;
54388;SDS011;40975;50.390;8.640;2023-02-01T17:07:09;7.78;;;1.67;;
54388;SDS011;40975;50.390;8.640;2023-02-01T17:09:37;4.45;;;1.35;;
54388;SDS011;40975;50.390;8.640;2023-02-01T17:12:03;8.40;;;1.55;;
54388;SDS011;40975;50.390;8.640;2023-02-01T17:14:30;6.85;;;1.13;;
54388;SDS011;40975;50.390;8.640;2023-02-01T17:16:59;3.80;;;1.00;;
54388;SDS011;40975;50.390;8.640;2023-02-01T17:19:25;8.68;;;1.17;;
54388;SDS011;40975;50.390;8.640;2023-02-01T17:21:51;3.33;;;1.30;;
54388;SDS011;40975;50.390;8.640;2023-02-01T17:24:21;9.82;;;1.58;;
54388;SDS011;40975;50.390;8.640;2023-02-01T17:26:49;4.70;;;1.65;;